Time;durP1;ratioP1;P1;durP2;ratioP2;P2;SDS_P1;SDS_P2;PMS_P1;PMS_P2;Temp;Humidity;BMP_temperature;BMP_pressure;BME280_temperature;BME280_humidity;BME280_pressure;Samples;Min_cycle;Max_cycle;Signal;HPM_P1;HPM_P2
2020/12/24 00:02:13;;;;;;;18.33;3.30;;;9.80;99.90;;;;;;5094678;28;20578;-74
2020/12/24 00:04:39;;;;;;;15.52;2.95;;;9.70;99.90;;;;;;5094867;28;20646;-74
2020/12/24 00:07:05;;;;;;;12.02;3.30;;;9.60;99.90;;;;;;5095156;28;20208;-74
2020/12/24 00:09:32;;;;;;;16.58;3.20;;;9.40;99.90;;;;;;5109188;28;20209;-74
2020/12/24 00:11:59;;;;;;;14.25;2.88;;;9.40;99.90;;;;;;5106996;28;20564;-75
2020/12/24 00:14:25;;;;;;;13.38;3.10;;;9.40;99.90;;;;;;5114851;28;20204;-74
2020/12/24 00:16:52;;;;;;;9.02;2.60;;;9.30;99.90;;;;;;5114733;28;20652;-75
2020/12/24 00:19:18;;;;;;;12.90;3.00;;;9.30;99.90;;;;;;5115039;28;20292;-75
2020/12/24 00:21:44;;;;;;;11.73;2.88;;;9.30;99.90;;;;;;5114938;28;20277;-75
2020/12/24 00:24:11;;;;;;;13.85;2.92;;;9.30;99.90;;;;;;5114402;28;20231;-75
2020/12/24 00:26:37;;;;;;;10.95;3.08;;;9.20;99.90;;;;;;5100604;28;20209;-74
2020/12/24 00:29:06;;;;;;;16.65;3.47;;;9.10;99.90;;;;;;5089850;28;20203;-74
2020/12/24 00:31:33;;;;;;;14.98;3.42;;;9.20;99.90;;;;;;5092459;28;20294;-75
2020/12/24 00:34:00;;;;;;;16.77;4.05;;;9.20;99.90;;;;;;5105351;28;20221;-75
2020/12/24 00:36:27;;;;;;;13.80;3.15;;;9.20;99.90;;;;;;5110949;28;20213;-75
2020/12/24 00:38:53;;;;;;;13.10;3.03;;;9.20;99.90;;;;;;5084633;28;20561;-75
2020/12/24 00:41:19;;;;;;;15.25;3.47;;;9.10;99.90;;;;;;5104629;28;20228;-75
2020/12/24 00:43:46;;;;;;;12.23;3.03;;;9.10;99.90;;;;;;5114392;28;20193;-75
2020/12/24 00:46:13;;;;;;;17.30;3.33;;;9.10;99.90;;;;;;5100478;28;20209;-75
2020/12/24 00:48:39;;;;;;;20.30;3.42;;;9.10;99.90;;;;;;5107939;28;20718;-75
2020/12/24 00:51:06;;;;;;;16.58;2.53;;;9.10;99.90;;;;;;5105971;28;20208;-75
2020/12/24 00:53:32;;;;;;;12.07;2.92;;;9.20;99.90;;;;;;5110378;28;20285;-75
2020/12/24 00:55:59;;;;;;;13.75;3.20;;;9.20;99.90;;;;;;5104072;28;20205;-75
2020/12/24 00:58:25;;;;;;;12.70;3.00;;;9.20;99.90;;;;;;5114137;28;20201;-75
2020/12/24 01:00:51;;;;;;;12.35;3.25;;;9.20;99.90;;;;;;5114145;28;20200;-75
2020/12/24 01:03:19;;;;;;;18.30;4.47;;;9.20;99.90;;;;;;5113823;28;20193;-75
2020/12/24 01:05:45;;;;;;;13.95;3.97;;;9.10;99.90;;;;;;5113595;28;20284;-75
2020/12/24 01:08:11;;;;;;;13.25;4.13;;;9.10;99.90;;;;;;5087249;28;20194;-75
2020/12/24 01:10:38;;;;;;;16.23;4.82;;;8.90;99.90;;;;;;5093006;28;20285;-76
2020/12/24 01:13:04;;;;;;;15.55;4.43;;;8.90;99.90;;;;;;5093197;28;20668;-75
2020/12/24 01:15:30;;;;;;;14.50;4.70;;;9.00;99.90;;;;;;5093637;28;20198;-75
2020/12/24 01:17:57;;;;;;;16.60;5.28;;;8.90;99.90;;;;;;5093462;28;20200;-75
2020/12/24 01:20:24;;;;;;;16.27;4.78;;;8.90;99.90;;;;;;5093445;28;20198;-75
2020/12/24 01:22:50;;;;;;;15.68;4.47;;;8.90;99.90;;;;;;5092812;28;20226;-74
2020/12/24 01:25:16;;;;;;;17.08;5.03;;;8.90;99.90;;;;;;5093205;28;20194;-75
2020/12/24 01:27:43;;;;;;;18.17;4.78;;;8.90;99.90;;;;;;5093650;28;20202;-77
2020/12/24 01:30:09;;;;;;;18.17;4.63;;;8.90;99.90;;;;;;5079309;28;20323;-75
2020/12/24 01:32:35;;;;;;;15.57;4.68;;;8.80;99.90;;;;;;5093172;28;20297;-74
2020/12/24 01:35:02;;;;;;;18.48;5.25;;;8.90;99.90;;;;;;5093095;28;20196;-75
2020/12/24 01:37:29;;;;;;;16.42;4.88;;;8.90;99.90;;;;;;5093170;28;20293;-74
2020/12/24 01:39:55;;;;;;;19.40;5.07;;;8.90;99.90;;;;;;5092605;28;20204;-74
2020/12/24 01:42:22;;;;;;;17.60;4.07;;;8.80;99.90;;;;;;5092854;28;20226;-75
2020/12/24 01:44:48;;;;;;;21.92;5.82;;;8.80;99.90;;;;;;5092673;28;20194;-74
2020/12/24 01:47:15;;;;;;;14.18;3.88;;;8.90;99.90;;;;;;5092067;28;20718;-74
2020/12/24 01:49:41;;;;;;;19.20;4.35;;;8.90;99.90;;;;;;5093063;28;20198;-74
2020/12/24 01:52:38;;;;;;;14.85;4.40;;;8.70;99.90;;;;;;5092871;28;20202;-74
2020/12/24 01:55:07;;;;;;;10.73;3.45;;;8.80;99.90;;;;;;5016275;28;20291;-75
2020/12/24 01:57:34;;;;;;;16.65;4.43;;;8.90;99.90;;;;;;5093215;28;20198;-76
2020/12/24 02:00:02;;;;;;;13.45;4.05;;;8.80;99.90;;;;;;5093166;28;20270;-75
2020/12/24 02:02:29;;;;;;;13.20;4.20;;;8.90;99.90;;;;;;5092399;28;20684;-75
2020/12/24 02:04:55;;;;;;;10.88;3.47;;;8.90;99.90;;;;;;5092613;28;20727;-75
2020/12/24 02:07:22;;;;;;;13.60;3.78;;;9.00;99.90;;;;;;5092494;28;20194;-74
2020/12/24 02:09:50;;;;;;;13.68;4.75;;;8.90;99.90;;;;;;5092564;28;20202;-75
2020/12/24 02:12:18;;;;;;;19.90;4.57;;;8.80;99.90;;;;;;5092397;28;20653;-75
2020/12/24 02:14:45;;;;;;;13.48;4.20;;;8.90;99.90;;;;;;5092875;28;20197;-76
2020/12/24 02:17:12;;;;;;;11.13;4.45;;;8.90;99.90;;;;;;5092337;28;20250;-75
2020/12/24 02:19:40;;;;;;;18.33;4.80;;;8.90;99.90;;;;;;5092453;28;20205;-75
2020/12/24 02:22:08;;;;;;;19.27;5.57;;;8.80;99.90;;;;;;5092273;28;20225;-75
2020/12/24 02:24:36;;;;;;;12.50;3.97;;;8.90;99.90;;;;;;5092342;28;20208;-75
2020/12/24 02:27:03;;;;;;;17.27;4.40;;;8.90;99.90;;;;;;5092700;28;20205;-75
2020/12/24 02:29:29;;;;;;;16.85;4.68;;;8.80;99.90;;;;;;5092114;28;20251;-75
2020/12/24 02:31:56;;;;;;;15.18;4.22;;;8.80;99.90;;;;;;5084919;28;20661;-75
2020/12/24 02:34:22;;;;;;;14.88;4.07;;;8.80;99.90;;;;;;5092357;28;20649;-75
2020/12/24 02:36:49;;;;;;;16.75;4.25;;;8.90;99.90;;;;;;5090334;28;20208;-75
2020/12/24 02:39:16;;;;;;;15.82;4.35;;;8.70;99.90;;;;;;5092464;28;20251;-75
2020/12/24 02:41:43;;;;;;;11.18;3.00;;;8.80;99.90;;;;;;5092261;28;20222;-75
2020/12/24 02:44:09;;;;;;;13.77;3.92;;;8.70;99.90;;;;;;5092229;28;20557;-75
2020/12/24 02:46:35;;;;;;;13.52;3.92;;;8.70;99.90;;;;;;5092064;28;20198;-75
2020/12/24 02:49:02;;;;;;;14.35;3.97;;;8.80;99.90;;;;;;5091955;28;20202;-75
2020/12/24 02:51:28;;;;;;;13.93;4.15;;;8.60;99.90;;;;;;5092313;28;20206;-75
2020/12/24 02:53:54;;;;;;;10.68;3.53;;;8.70;99.90;;;;;;5092274;28;20210;-75
2020/12/24 02:56:22;;;;;;;13.20;3.78;;;8.60;99.90;;;;;;5091936;28;20205;-76
2020/12/24 02:58:48;;;;;;;14.98;3.08;;;8.60;99.90;;;;;;5094807;28;20194;-75
2020/12/24 03:01:14;;;;;;;15.07;3.55;;;8.60;99.90;;;;;;5095966;28;20205;-75
2020/12/24 03:03:40;;;;;;;15.77;3.50;;;8.70;99.90;;;;;;5095522;28;20198;-75
2020/12/24 03:06:07;;;;;;;8.63;2.88;;;8.60;99.90;;;;;;5096045;28;20202;-74
2020/12/24 03:08:33;;;;;;;12.30;3.13;;;8.70;99.90;;;;;;5096030;28;20202;-75
2020/12/24 03:10:59;;;;;;;7.97;2.95;;;8.70;99.90;;;;;;5095554;28;20259;-75
2020/12/24 03:13:27;;;;;;;16.80;2.50;;;8.70;99.90;;;;;;5095385;28;20285;-75
2020/12/24 03:15:53;;;;;;;11.00;2.38;;;8.70;99.90;;;;;;5095614;28;20301;-76
2020/12/24 03:18:19;;;;;;;9.48;2.53;;;8.70;99.90;;;;;;5095258;28;20198;-75
2020/12/24 03:20:46;;;;;;;7.93;1.90;;;8.70;99.90;;;;;;5095358;28;20204;-75
2020/12/24 03:23:12;;;;;;;8.00;2.78;;;8.70;99.90;;;;;;5095620;28;20222;-75
2020/12/24 03:25:38;;;;;;;6.78;2.17;;;8.70;99.90;;;;;;5095668;28;20331;-75
2020/12/24 03:28:05;;;;;;;7.30;1.70;;;8.70;99.90;;;;;;5095472;28;20335;-76
2020/12/24 03:30:32;;;;;;;6.95;2.28;;;8.60;99.90;;;;;;5095421;28;20206;-75
2020/12/24 03:32:58;;;;;;;5.57;1.70;;;8.60;99.90;;;;;;5095037;28;20247;-74
2020/12/24 03:35:25;;;;;;;6.95;2.40;;;8.60;99.90;;;;;;5095198;28;20206;-76
2020/12/24 03:37:51;;;;;;;10.10;1.92;;;8.50;99.90;;;;;;5094854;28;20194;-75
2020/12/24 03:40:17;;;;;;;6.18;1.95;;;8.40;99.90;;;;;;5103820;28;20211;-75
2020/12/24 03:42:43;;;;;;;11.73;2.88;;;8.30;99.90;;;;;;5101368;28;20220;-75
2020/12/24 03:45:10;;;;;;;6.50;2.00;;;8.20;99.90;;;;;;5081300;28;20290;-75
2020/12/24 03:47:37;;;;;;;13.68;2.35;;;8.10;99.90;;;;;;5094940;28;20645;-75
2020/12/24 03:50:04;;;;;;;6.05;1.63;;;8.10;99.90;;;;;;5094999;28;20562;-75
2020/12/24 03:52:30;;;;;;;10.00;2.43;;;8.10;99.90;;;;;;5095061;28;20210;-75
2020/12/24 03:54:56;;;;;;;11.88;2.58;;;8.20;99.90;;;;;;5095025;28;20267;-75
2020/12/24 03:57:23;;;;;;;9.07;2.17;;;8.20;99.90;;;;;;5095408;28;20210;-75
2020/12/24 03:59:49;;;;;;;5.50;1.52;;;8.20;99.90;;;;;;5094608;28;20216;-75
2020/12/24 04:02:15;;;;;;;5.15;1.92;;;8.20;99.90;;;;;;5094945;28;20647;-75
2020/12/24 04:04:43;;;;;;;7.63;1.92;;;8.10;99.90;;;;;;5094485;28;20562;-75
2020/12/24 04:07:09;;;;;;;10.25;2.05;;;8.30;99.90;;;;;;5094319;28;20194;-75
2020/12/24 04:09:36;;;;;;;6.07;1.52;;;8.30;99.90;;;;;;5093901;28;20202;-75
2020/12/24 04:12:02;;;;;;;7.82;1.70;;;8.30;99.90;;;;;;5094087;28;20664;-75
2020/12/24 04:14:28;;;;;;;8.80;1.92;;;8.30;99.90;;;;;;5093981;28;20653;-74
2020/12/24 04:16:55;;;;;;;8.25;1.60;;;8.30;99.90;;;;;;5094427;28;20202;-75
2020/12/24 04:19:21;;;;;;;8.23;1.90;;;8.30;99.90;;;;;;5093960;28;20650;-75
2020/12/24 04:21:48;;;;;;;10.35;2.10;;;8.30;99.90;;;;;;5094342;28;20468;-75
2020/12/24 04:24:14;;;;;;;10.55;2.22;;;8.30;99.90;;;;;;5094220;28;20577;-75
2020/12/24 04:26:41;;;;;;;8.23;2.00;;;8.30;99.90;;;;;;5094409;28;20213;-77
2020/12/24 04:29:07;;;;;;;5.57;2.20;;;8.30;99.90;;;;;;5108846;28;20280;-75
2020/12/24 04:31:33;;;;;;;13.00;2.17;;;8.30;99.90;;;;;;5080447;28;20388;-74
2020/12/24 04:34:00;;;;;;;10.52;1.92;;;8.10;99.90;;;;;;5082180;28;20271;-75
2020/12/24 04:36:26;;;;;;;6.65;1.73;;;8.10;99.90;;;;;;5091993;28;20610;-75
2020/12/24 04:38:53;;;;;;;9.55;2.30;;;8.00;99.90;;;;;;5094294;28;20207;-76
2020/12/24 04:41:20;;;;;;;6.13;1.63;;;8.00;99.90;;;;;;5093673;28;20666;-76
2020/12/24 04:43:47;;;;;;;9.73;1.90;;;7.90;99.90;;;;;;5093818;28;20251;-75
2020/12/24 04:46:14;;;;;;;14.45;3.22;;;7.80;99.90;;;;;;5094067;28;20209;-76
2020/12/24 04:48:40;;;;;;;10.93;1.80;;;7.80;99.90;;;;;;5094024;28;20210;-74
2020/12/24 04:51:09;;;;;;;6.78;1.90;;;7.70;99.90;;;;;;5093687;28;20203;-75
2020/12/24 04:53:37;;;;;;;9.17;1.90;;;7.70;99.90;;;;;;5093677;28;20202;-76
2020/12/24 04:56:06;;;;;;;12.77;2.50;;;7.70;99.90;;;;;;5093927;28;20205;-74
2020/12/24 04:58:34;;;;;;;7.63;1.90;;;7.70;99.90;;;;;;5093543;28;20198;-74
2020/12/24 05:01:01;;;;;;;7.97;2.20;;;7.80;99.90;;;;;;5093624;28;20576;-74
2020/12/24 05:03:27;;;;;;;6.57;2.10;;;7.80;99.90;;;;;;5093531;28;20230;-74
2020/12/24 05:05:54;;;;;;;8.90;2.17;;;7.70;99.90;;;;;;5093877;28;20198;-74
2020/12/24 05:08:20;;;;;;;13.07;3.30;;;7.70;99.90;;;;;;5093469;28;20207;-76
2020/12/24 05:11:03;;;;;;;9.43;2.00;;;7.60;99.90;;;;;;5094232;28;20204;-75
2020/12/24 05:13:31;;;;;;;8.00;1.93;;;7.60;99.90;;;;;;5093234;28;20657;-74
2020/12/24 05:15:57;;;;;;;7.63;1.93;;;7.60;99.90;;;;;;5089758;28;20202;-75
2020/12/24 05:18:23;;;;;;;7.43;1.90;;;7.50;99.90;;;;;;5093912;28;20202;-74
2020/12/24 05:20:50;;;;;;;11.83;2.70;;;7.60;99.90;;;;;;5092377;28;20650;-74
2020/12/24 05:23:18;;;;;;;10.83;2.50;;;7.60;99.90;;;;;;5093166;28;20568;-75
2020/12/24 05:25:46;;;;;;;6.23;2.30;;;7.60;99.90;;;;;;5092882;28;20653;-76
2020/12/24 05:28:23;;;;;;;9.60;2.57;;;7.70;99.90;;;;;;5093756;28;20209;-75
2020/12/24 05:30:51;;;;;;;10.47;2.33;;;7.70;99.90;;;;;;5092994;28;20288;-76
2020/12/24 05:33:31;;;;;;;11.83;2.50;;;7.70;99.90;;;;;;5093149;28;20209;-75
2020/12/24 05:36:15;;;;;;;7.72;2.10;;;7.70;99.90;;;;;;5092560;28;20205;-75
2020/12/24 05:38:42;;;;;;;8.03;2.40;;;7.80;99.90;;;;;;5091882;28;20209;-75
2020/12/24 05:41:27;;;;;;;12.63;2.77;;;7.80;99.90;;;;;;5092914;28;20202;-74
2020/12/24 05:43:58;;;;;;;10.63;2.97;;;7.80;99.90;;;;;;5093145;28;20197;-75
2020/12/24 05:46:27;;;;;;;14.95;2.47;;;7.80;99.90;;;;;;5092521;28;20205;-75
2020/12/24 05:48:54;;;;;;;10.97;3.00;;;7.80;99.90;;;;;;5092739;28;20202;-75
2020/12/24 05:51:20;;;;;;;12.32;3.35;;;7.80;99.90;;;;;;5092447;28;20856;-74
2020/12/24 05:53:47;;;;;;;11.57;2.63;;;7.80;99.90;;;;;;5092971;28;20614;-75
2020/12/24 05:56:23;;;;;;;10.73;2.87;;;7.80;99.90;;;;;;5093082;28;20212;-75
2020/12/24 05:58:51;;;;;;;14.27;3.30;;;7.80;99.90;;;;;;5093246;28;20284;-74
2020/12/24 06:01:18;;;;;;;7.72;3.15;;;7.80;99.90;;;;;;5092754;28;20657;-75
2020/12/24 06:04:01;;;;;;;7.07;2.83;;;7.80;99.90;;;;;;5092564;28;20194;-75
2020/12/24 06:06:42;;;;;;;10.38;3.13;;;7.80;99.90;;;;;;5092862;28;20224;-74
2020/12/24 06:09:13;;;;;;;12.00;3.67;;;7.80;99.90;;;;;;5080541;28;20190;-74
2020/12/24 06:11:49;;;;;;;13.60;4.03;;;7.80;99.90;;;;;;5092897;28;20626;-76
2020/12/24 06:14:30;;;;;;;11.63;3.13;;;7.80;99.90;;;;;;5092771;28;20193;-76
2020/12/24 06:17:05;;;;;;;12.40;3.63;;;7.90;99.90;;;;;;5092601;28;20255;-76
2020/12/24 06:19:39;;;;;;;12.50;3.63;;;7.90;99.90;;;;;;5092493;28;20289;-74
2020/12/24 06:22:06;;;;;;;11.15;3.85;;;7.90;99.90;;;;;;5092275;28;20210;-75
2020/12/24 06:24:34;;;;;;;9.35;3.78;;;7.80;99.90;;;;;;5092467;28;20202;-74
2020/12/24 06:27:03;;;;;;;12.43;3.83;;;7.90;99.90;;;;;;5092767;28;20220;-74
2020/12/24 06:29:31;;;;;;;10.87;4.10;;;7.90;99.90;;;;;;5089466;28;20225;-75
2020/12/24 06:32:00;;;;;;;12.32;3.95;;;7.90;99.90;;;;;;5081925;28;20209;-75
2020/12/24 06:34:29;;;;;;;10.90;4.15;;;7.80;99.90;;;;;;5096560;28;20214;-75
2020/12/24 06:36:56;;;;;;;9.98;4.57;;;7.90;99.90;;;;;;5096562;28;20267;-74
2020/12/24 06:39:39;;;;;;;10.43;4.47;;;7.90;99.90;;;;;;5095989;28;20202;-75
2020/12/24 06:42:06;;;;;;;9.18;4.40;;;7.90;99.90;;;;;;5096107;28;20233;-75
2020/12/24 06:44:48;;;;;;;11.68;5.38;;;7.90;99.90;;;;;;5095906;28;20627;-74
2020/12/24 06:47:17;;;;;;;7.88;4.50;;;7.90;99.90;;;;;;5096276;28;20202;-74
2020/12/24 06:49:44;;;;;;;14.18;4.78;;;8.00;99.90;;;;;;5096220;28;20212;-74
2020/12/24 06:52:12;;;;;;;10.60;4.82;;;8.00;99.90;;;;;;5096260;28;20198;-75
2020/12/24 06:54:41;;;;;;;15.32;5.32;;;8.40;99.90;;;;;;5096272;28;20649;-77
2020/12/24 06:57:24;;;;;;;10.93;4.90;;;8.00;99.90;;;;;;5082592;28;20194;-74
2020/12/24 07:00:18;;;;;;;15.07;6.13;;;8.00;99.90;;;;;;5095922;28;20206;-75
2020/12/24 07:02:45;;;;;;;15.90;6.87;;;8.00;99.90;;;;;;5096084;28;20218;-74
2020/12/24 07:05:45;;;;;;;12.95;7.97;;;8.00;99.90;;;;;;5095842;28;20236;-75
2020/12/24 07:08:33;;;;;;;21.27;15.43;;;8.10;99.90;;;;;;5095558;28;20327;-76
2020/12/24 07:11:01;;;;;;;32.78;20.27;;;8.00;99.90;;;;;;5095381;28;20198;-74
2020/12/24 07:13:33;;;;;;;27.07;20.17;;;7.90;99.90;;;;;;5106167;28;20232;-74
2020/12/24 07:15:59;;;;;;;30.50;21.13;;;7.80;99.90;;;;;;5107650;28;20198;-74
2020/12/24 07:18:27;;;;;;;31.40;20.77;;;7.90;99.90;;;;;;5085547;28;20214;-74
2020/12/24 07:20:54;;;;;;;21.33;18.60;;;7.80;99.90;;;;;;5091855;28;20222;-74
2020/12/24 07:23:30;;;;;;;22.67;19.87;;;7.70;99.90;;;;;;5095370;28;20224;-74
2020/12/24 07:25:58;;;;;;;24.47;17.83;;;7.50;99.90;;;;;;5095254;28;20535;-74
2020/12/24 07:28:28;;;;;;;29.07;18.87;;;7.50;99.90;;;;;;5094933;28;20209;-74
2020/12/24 07:30:59;;;;;;;29.37;20.17;;;7.50;99.90;;;;;;5081206;28;20199;-74
2020/12/24 07:33:26;;;;;;;19.20;14.60;;;7.50;99.90;;;;;;5095448;28;20218;-74
2020/12/24 07:35:53;;;;;;;8.23;7.20;;;7.40;99.90;;;;;;5095631;28;20194;-74
2020/12/24 07:38:20;;;;;;;6.27;4.73;;;7.30;99.90;;;;;;5089382;28;20206;-73
2020/12/24 07:40:48;;;;;;;4.40;3.70;;;7.00;99.90;;;;;;5075019;28;20668;-72
2020/12/24 07:43:14;;;;;;;4.70;3.80;;;7.00;99.90;;;;;;5089167;28;20219;-73
2020/12/24 07:45:42;;;;;;;4.17;3.77;;;6.70;99.90;;;;;;5084733;28;20603;-73
2020/12/24 07:48:13;;;;;;;4.73;4.03;;;6.60;99.90;;;;;;5094962;28;20212;-74
2020/12/24 07:50:40;;;;;;;5.30;4.23;;;6.50;99.90;;;;;;5095222;28;20205;-74
2020/12/24 07:53:08;;;;;;;4.30;3.80;;;6.30;99.90;;;;;;5080706;28;20221;-75
2020/12/24 07:55:34;;;;;;;5.53;4.00;;;6.20;99.90;;;;;;5094888;28;20538;-74
2020/12/24 07:58:09;;;;;;;9.83;4.27;;;6.00;99.90;;;;;;5081067;28;20198;-74
2020/12/24 08:00:43;;;;;;;6.40;4.57;;;5.90;99.90;;;;;;5082045;28;20220;-73
2020/12/24 08:03:09;;;;;;;5.97;4.20;;;5.90;99.90;;;;;;5080202;28;20586;-77
2020/12/24 08:05:36;;;;;;;5.17;4.10;;;5.90;99.90;;;;;;5094846;28;20199;-73
2020/12/24 08:08:02;;;;;;;5.60;4.70;;;5.80;99.90;;;;;;5095191;28;20202;-75
2020/12/24 08:10:29;;;;;;;5.50;4.10;;;5.60;99.90;;;;;;5081042;28;20655;-79
2020/12/24 08:13:02;;;;;;;4.87;3.60;;;5.60;99.90;;;;;;5081218;28;20202;-75
2020/12/24 08:15:32;;;;;;;6.10;3.50;;;5.50;99.90;;;;;;5104947;28;20208;-77
2020/12/24 08:18:01;;;;;;;3.40;3.10;;;5.60;99.90;;;;;;5079350;28;20201;-76
2020/12/24 08:20:34;;;;;;;3.00;2.80;;;5.50;99.90;;;;;;5104623;28;20204;-76
2020/12/24 08:23:07;;;;;;;3.50;2.80;;;5.50;99.90;;;;;;5111655;28;20209;-74
2020/12/24 08:25:35;;;;;;;5.03;2.70;;;5.40;99.90;;;;;;5110599;28;20194;-75
2020/12/24 08:28:03;;;;;;;4.07;3.20;;;5.70;99.90;;;;;;5111131;28;20194;-76
2020/12/24 08:30:30;;;;;;;4.50;2.80;;;5.50;99.90;;;;;;5112302;28;20280;-75
2020/12/24 08:32:58;;;;;;;3.50;2.77;;;5.40;99.90;;;;;;5094265;28;20213;-75
2020/12/24 08:35:29;;;;;;;3.37;2.83;;;5.40;99.90;;;;;;5104186;28;20201;-75
2020/12/24 08:38:08;;;;;;;3.70;3.00;;;5.40;99.90;;;;;;5109431;28;20250;-75
2020/12/24 08:40:36;;;;;;;2.50;2.30;;;5.50;99.90;;;;;;5100707;28;20190;-75
2020/12/24 08:43:07;;;;;;;2.87;2.30;;;5.50;99.90;;;;;;5107701;28;20314;-76
2020/12/24 08:45:42;;;;;;;2.43;2.23;;;5.50;99.90;;;;;;5111884;28;20279;-75
2020/12/24 08:48:09;;;;;;;2.20;2.00;;;5.50;99.90;;;;;;5106321;28;20652;-75
2020/12/24 08:50:38;;;;;;;3.70;2.40;;;5.50;99.90;;;;;;5103038;28;20211;-75
2020/12/24 08:53:05;;;;;;;3.00;2.33;;;5.50;99.90;;;;;;5109330;28;20199;-75
2020/12/24 08:55:32;;;;;;;2.50;2.20;;;5.50;99.90;;;;;;5104366;28;20201;-75
2020/12/24 08:57:59;;;;;;;2.60;1.80;;;5.50;99.90;;;;;;5093689;28;20208;-74
2020/12/24 09:00:26;;;;;;;3.27;2.03;;;5.50;99.90;;;;;;5093783;28;20202;-76
2020/12/24 09:02:53;;;;;;;2.13;2.00;;;5.50;99.90;;;;;;5093462;28;20218;-76
2020/12/24 09:05:24;;;;;;;2.70;2.07;;;5.60;99.90;;;;;;5109639;28;20190;-75
2020/12/24 09:07:51;;;;;;;2.33;1.87;;;5.50;99.90;;;;;;5100821;28;20198;-75
2020/12/24 09:10:24;;;;;;;1.53;1.43;;;5.50;99.90;;;;;;5105363;28;20202;-75
2020/12/24 09:12:57;;;;;;;2.30;1.40;;;5.50;99.90;;;;;;5103709;28;20197;-75
2020/12/24 09:15:26;;;;;;;3.77;1.70;;;5.50;99.90;;;;;;5102542;28;20319;-74
2020/12/24 09:17:54;;;;;;;2.60;1.57;;;5.60;99.90;;;;;;5094086;28;20666;-75
2020/12/24 09:20:23;;;;;;;3.07;2.00;;;5.60;99.90;;;;;;5092920;28;20202;-73
2020/12/24 09:22:51;;;;;;;1.73;1.57;;;5.60;99.90;;;;;;5092255;28;20695;-74
2020/12/24 09:25:30;;;;;;;2.93;1.77;;;5.70;99.90;;;;;;5088826;28;20248;-73
2020/12/24 09:27:57;;;;;;;2.43;1.97;;;5.70;99.90;;;;;;5090601;28;20190;-73
2020/12/24 09:30:23;;;;;;;2.30;2.10;;;5.70;99.90;;;;;;5094283;28;20289;-73
2020/12/24 09:32:55;;;;;;;2.43;2.23;;;5.70;99.90;;;;;;5090033;28;20243;-80
2020/12/24 09:35:22;;;;;;;4.27;2.37;;;5.70;99.90;;;;;;5078108;28;20209;-74
2020/12/24 09:37:48;;;;;;;2.43;2.23;;;5.70;99.90;;;;;;5090320;28;20202;-73
2020/12/24 09:40:15;;;;;;;3.80;2.20;;;5.70;99.90;;;;;;5090267;28;21400;-74
2020/12/24 09:42:42;;;;;;;4.07;2.13;;;5.70;99.90;;;;;;5095843;28;20222;-75
2020/12/24 09:45:08;;;;;;;2.37;2.17;;;5.70;99.90;;;;;;5095963;28;20198;-74
2020/12/24 09:47:34;;;;;;;2.77;2.37;;;5.70;99.90;;;;;;5091372;28;20736;-74
2020/12/24 09:50:03;;;;;;;2.47;1.97;;;5.80;99.90;;;;;;5101435;28;20208;-74
2020/12/24 09:52:29;;;;;;;1.63;1.50;;;5.80;99.90;;;;;;5097254;28;20206;-73
2020/12/24 09:54:55;;;;;;;3.40;1.70;;;5.80;99.90;;;;;;5100374;28;20225;-74
2020/12/24 09:57:22;;;;;;;2.73;1.90;;;5.90;99.90;;;;;;5094619;28;20587;-74
2020/12/24 09:59:48;;;;;;;4.23;2.00;;;5.90;99.90;;;;;;5095353;28;20661;-74
2020/12/24 10:02:15;;;;;;;2.70;1.60;;;5.90;99.90;;;;;;5096734;28;20214;-73
2020/12/24 10:04:41;;;;;;;2.67;1.80;;;5.90;99.90;;;;;;5094933;28;20256;-75
2020/12/24 10:07:09;;;;;;;3.60;2.37;;;5.90;99.90;;;;;;5097076;28;20190;-73
2020/12/24 10:09:36;;;;;;;2.13;1.90;;;5.90;99.90;;;;;;5099362;28;20205;-73
2020/12/24 10:12:02;;;;;;;2.43;2.00;;;5.90;99.90;;;;;;5101460;28;20289;-76
2020/12/24 10:14:29;;;;;;;2.93;2.73;;;6.00;99.90;;;;;;5099455;28;20399;-73
2020/12/24 10:16:55;;;;;;;3.37;2.40;;;6.00;99.90;;;;;;5098768;28;20720;-75
2020/12/24 10:19:22;;;;;;;3.93;2.20;;;6.10;99.90;;;;;;5096410;28;20531;-74
2020/12/24 10:21:48;;;;;;;6.00;2.53;;;6.10;99.90;;;;;;5096411;28;20638;-74
2020/12/24 10:24:16;;;;;;;3.83;2.33;;;6.10;99.90;;;;;;5096228;28;20653;-75
2020/12/24 10:26:42;;;;;;;3.13;2.20;;;6.10;99.90;;;;;;5096532;28;20198;-73
2020/12/24 10:29:08;;;;;;;4.30;2.40;;;6.80;99.90;;;;;;5092432;28;20198;-75
2020/12/24 10:31:35;;;;;;;4.40;2.87;;;6.00;99.90;;;;;;5096151;28;20284;-73
2020/12/24 10:34:01;;;;;;;5.20;3.10;;;6.10;99.90;;;;;;5097582;28;20310;-74
2020/12/24 10:36:27;;;;;;;6.07;3.47;;;6.10;99.90;;;;;;5097080;28;20202;-74
2020/12/24 10:38:54;;;;;;;7.83;3.50;;;6.10;99.90;;;;;;5097256;28;20198;-74
2020/12/24 10:41:21;;;;;;;7.20;3.90;;;6.10;99.90;;;;;;5097600;28;20654;-75
2020/12/24 10:43:47;;;;;;;8.67;4.30;;;6.30;99.90;;;;;;5096982;28;20684;-75
2020/12/24 10:46:20;;;;;;;8.47;5.17;;;6.30;99.90;;;;;;5097871;28;20289;-75
2020/12/24 10:48:46;;;;;;;8.23;5.30;;;6.30;99.90;;;;;;5096663;28;20205;-80
2020/12/24 10:51:14;;;;;;;6.90;5.10;;;6.30;99.90;;;;;;5072261;28;20202;-74
2020/12/24 10:53:40;;;;;;;9.47;5.40;;;6.30;99.90;;;;;;5082532;28;20213;-74
2020/12/24 10:56:11;;;;;;;8.90;5.03;;;6.40;99.90;;;;;;5105019;28;20193;-75
2020/12/24 10:58:40;;;;;;;5.27;4.03;;;6.40;99.90;;;;;;5110978;28;20604;-75
2020/12/24 11:01:10;;;;;;;8.43;4.03;;;6.40;99.90;;;;;;5101501;28;20205;-76
2020/12/24 11:03:37;;;;;;;6.63;3.80;;;6.30;99.90;;;;;;5110818;28;20217;-76
2020/12/24 11:06:04;;;;;;;7.27;4.13;;;6.30;99.90;;;;;;5113075;28;20634;-75
2020/12/24 11:08:30;;;;;;;5.13;3.57;;;6.30;99.90;;;;;;5098586;28;20673;-76
2020/12/24 11:10:57;;;;;;;8.87;3.57;;;6.40;99.90;;;;;;5113263;28;20204;-74
2020/12/24 11:13:23;;;;;;;4.87;3.30;;;6.40;99.90;;;;;;5109933;28;20213;-74
2020/12/24 11:15:50;;;;;;;5.93;3.47;;;6.40;99.90;;;;;;5106409;28;20309;-75
2020/12/24 11:18:17;;;;;;;8.33;4.70;;;6.50;99.90;;;;;;5095274;28;20202;-74
2020/12/24 11:20:43;;;;;;;5.80;3.27;;;6.40;99.90;;;;;;5093433;28;20255;-75
2020/12/24 11:23:10;;;;;;;9.40;3.33;;;6.30;99.90;;;;;;5095098;28;20659;-74
2020/12/24 11:25:36;;;;;;;7.23;3.57;;;6.40;99.90;;;;;;5095039;28;20212;-74
2020/12/24 11:28:03;;;;;;;8.13;4.73;;;6.30;99.90;;;;;;5095219;28;20225;-75
2020/12/24 11:30:29;;;;;;;9.70;4.50;;;6.40;99.90;;;;;;5106848;28;20210;-75
2020/12/24 11:32:57;;;;;;;9.67;5.17;;;6.40;99.90;;;;;;5097968;28;20213;-75
2020/12/24 11:35:23;;;;;;;12.50;3.73;;;6.70;99.90;;;;;;5085911;28;20203;-75
2020/12/24 11:37:49;;;;;;;6.67;2.87;;;6.50;99.90;;;;;;5090048;28;20665;-74
2020/12/24 11:40:16;;;;;;;9.43;2.77;;;6.50;99.90;;;;;;5102000;28;20553;-74
2020/12/24 11:42:42;;;;;;;8.00;4.50;;;6.40;99.90;;;;;;5100487;28;20228;-76
2020/12/24 11:45:09;;;;;;;8.27;3.93;;;6.40;99.90;;;;;;5094911;28;20245;-76
2020/12/24 11:47:35;;;;;;;29.23;11.43;;;6.40;99.90;;;;;;5094621;28;20195;-74
2020/12/24 11:50:04;;;;;;;14.53;6.27;;;6.50;99.90;;;;;;5094716;28;20194;-74
2020/12/24 11:52:30;;;;;;;8.73;2.83;;;6.60;99.90;;;;;;5095141;28;20206;-74
2020/12/24 11:54:56;;;;;;;28.10;14.60;;;6.60;99.90;;;;;;5094729;28;20201;-74
2020/12/24 11:57:23;;;;;;;9.23;3.30;;;6.60;99.90;;;;;;5094939;28;20675;-73
2020/12/24 11:59:49;;;;;;;13.63;4.10;;;6.70;99.90;;;;;;5094634;28;20293;-73
2020/12/24 12:02:16;;;;;;;6.03;2.27;;;6.70;99.90;;;;;;5100983;28;20217;-74
2020/12/24 12:04:42;;;;;;;8.03;2.80;;;6.80;99.90;;;;;;5097755;28;20191;-73
2020/12/24 12:07:09;;;;;;;6.73;3.37;;;6.80;99.90;;;;;;5088558;28;20340;-73
2020/12/24 12:09:35;;;;;;;6.90;3.93;;;6.90;99.90;;;;;;5094030;28;20210;-73
2020/12/24 12:12:02;;;;;;;6.73;3.10;;;7.00;99.90;;;;;;5092802;28;20661;-72
2020/12/24 12:14:28;;;;;;;6.57;3.30;;;7.00;99.90;;;;;;5091270;28;20198;-73
2020/12/24 12:16:55;;;;;;;7.80;2.50;;;7.10;99.90;;;;;;5092755;28;20194;-72
2020/12/24 12:19:21;;;;;;;5.43;2.70;;;7.10;99.90;;;;;;5086329;28;20191;-73
2020/12/24 12:21:47;;;;;;;8.03;4.23;;;7.20;99.90;;;;;;5093423;28;20208;-74
2020/12/24 12:24:14;;;;;;;4.30;3.33;;;7.30;99.90;;;;;;5080681;28;20229;-74
2020/12/24 12:26:41;;;;;;;6.23;3.53;;;7.30;99.90;;;;;;5091522;28;20584;-73
2020/12/24 12:29:09;;;;;;;10.90;5.90;;;7.40;99.90;;;;;;5090541;28;20198;-73
2020/12/24 12:31:36;;;;;;;9.60;3.83;;;7.20;99.90;;;;;;5087184;28;20289;-72
2020/12/24 12:34:02;;;;;;;6.40;3.10;;;7.40;99.90;;;;;;5089928;28;20206;-75
2020/12/24 12:36:29;;;;;;;6.30;2.40;;;7.40;99.90;;;;;;5090789;28;20212;-74
2020/12/24 12:38:55;;;;;;;4.13;2.07;;;7.40;99.90;;;;;;5087747;28;20194;-75
2020/12/24 12:41:23;;;;;;;4.60;2.30;;;7.50;99.90;;;;;;5091539;28;20196;-75
2020/12/24 12:43:49;;;;;;;4.53;2.73;;;7.40;99.90;;;;;;5091936;28;20290;-79
2020/12/24 12:46:21;;;;;;;4.67;2.80;;;7.30;99.90;;;;;;5095321;28;20190;-75
2020/12/24 12:48:48;;;;;;;3.60;1.90;;;7.30;99.90;;;;;;5091390;28;20198;-76
2020/12/24 12:51:14;;;;;;;6.20;1.60;;;7.40;99.90;;;;;;5093276;28;20320;-77
2020/12/24 12:53:40;;;;;;;4.17;1.60;;;7.40;99.90;;;;;;5093289;28;20198;-75
2020/12/24 12:56:09;;;;;;;4.33;2.00;;;7.40;99.90;;;;;;5092386;28;20204;-73
2020/12/24 12:58:37;;;;;;;6.22;1.67;;;7.40;99.90;;;;;;5097084;28;20201;-73